createdAt,value
2022-08-17T00:02:26.590Z,21.39
2022-08-17T00:04:54.167Z,21.40
2022-08-17T00:07:20.745Z,21.42
2022-08-17T00:09:47.204Z,21.41
2022-08-17T00:12:40.696Z,21.41
2022-08-17T00:15:00.701Z,21.37
2022-08-17T00:17:27.476Z,21.36
2022-08-17T00:19:53.906Z,21.33
2022-08-17T00:22:32.278Z,21.33
2022-08-17T00:25:02.455Z,21.33
2022-08-17T00:27:28.941Z,21.33
2022-08-17T00:29:55.342Z,21.34
2022-08-17T00:33:11.902Z,21.34
2022-08-17T00:35:10.675Z,21.37
2022-08-17T00:37:37.078Z,21.39
2022-08-17T00:40:04.383Z,21.38
2022-08-17T00:42:31.384Z,21.36
2022-08-17T00:44:58.526Z,21.33
2022-08-17T00:47:25.028Z,21.28
2022-08-17T00:49:51.774Z,21.23
2022-08-17T00:52:23.047Z,21.17
2022-08-17T00:54:53.962Z,21.14
2022-08-17T00:57:26.027Z,21.07
2022-08-17T01:00:06.195Z,21.03
2022-08-17T01:02:41.676Z,21.02
2022-08-17T01:05:21.230Z,20.98
2022-08-17T01:07:50.609Z,20.95
2022-08-17T01:11:00.423Z,20.92
2022-08-17T01:13:07.461Z,20.88
2022-08-17T01:15:37.515Z,20.87
2022-08-17T01:18:09.845Z,20.85
2022-08-17T01:20:47.883Z,20.81
2022-08-17T01:23:20.560Z,20.78
2022-08-17T01:25:54.871Z,20.73
2022-08-17T01:28:52.389Z,20.69
2022-08-17T01:31:09.866Z,20.62
2022-08-17T01:33:36.719Z,20.59
2022-08-17T01:36:07.023Z,20.56
2022-08-17T01:38:37.951Z,20.54
2022-08-17T01:41:12.212Z,20.55
2022-08-17T01:43:51.239Z,20.54
2022-08-17T01:46:27.119Z,20.54
2022-08-17T01:48:55.276Z,20.53
2022-08-17T01:51:22.395Z,20.51
2022-08-17T01:53:54.060Z,20.50
2022-08-17T01:56:24.327Z,20.47
2022-08-17T01:58:51.348Z,20.46
2022-08-17T02:01:24.196Z,20.46
2022-08-17T02:03:59.295Z,20.40
2022-08-17T02:06:53.715Z,20.36
2022-08-17T02:09:18.819Z,20.31
2022-08-17T02:11:49.927Z,20.28
2022-08-17T02:14:16.663Z,20.26
2022-08-17T02:16:43.290Z,20.22
2022-08-17T02:19:14.138Z,20.19
2022-08-17T02:21:43.035Z,20.16
2022-08-17T02:24:12.943Z,20.15
2022-08-17T02:26:39.495Z,20.13
2022-08-17T02:29:06.017Z,20.13
2022-08-17T02:31:32.960Z,20.11
2022-08-17T02:34:04.185Z,20.11
2022-08-17T02:36:33.954Z,20.10
2022-08-17T02:39:03.436Z,20.08
2022-08-17T02:41:30.476Z,20.08
2022-08-17T02:43:57.124Z,20.09
2022-08-17T02:46:23.588Z,20.07
2022-08-17T02:48:50.076Z,20.07
2022-08-17T02:51:16.869Z,20.05
2022-08-17T02:53:43.475Z,20.05
2022-08-17T02:56:09.933Z,20.09
2022-08-17T02:58:36.436Z,20.10
2022-08-17T03:01:07.345Z,20.13
2022-08-17T03:03:34.234Z,20.12
2022-08-17T03:06:01.406Z,20.11
2022-08-17T03:08:28.209Z,20.10
2022-08-17T03:10:54.663Z,20.10
2022-08-17T03:13:21.126Z,20.10
2022-08-17T03:15:48.390Z,20.10
2022-08-17T03:18:24.736Z,20.11
2022-08-17T03:20:58.292Z,20.11
2022-08-17T03:23:26.413Z,20.12
2022-08-17T03:25:55.215Z,20.15
2022-08-17T03:28:23.181Z,20.14
2022-08-17T03:30:51.094Z,20.12
2022-08-17T03:33:18.558Z,20.11
2022-08-17T03:35:45.259Z,20.11
2022-08-17T03:38:15.000Z,20.11
2022-08-17T03:40:56.971Z,20.11
2022-08-17T03:43:29.629Z,20.10
2022-08-17T03:46:28.310Z,20.10
2022-08-17T03:49:20.498Z,20.08
2022-08-17T03:52:05.337Z,20.07
2022-08-17T03:54:50.170Z,20.08
2022-08-17T03:57:17.143Z,20.06
2022-08-17T03:59:43.623Z,20.06
2022-08-17T04:02:16.732Z,20.06
2022-08-17T04:04:43.174Z,20.06
2022-08-17T04:07:09.612Z,20.09
2022-08-17T04:09:36.586Z,20.08
2022-08-17T04:12:04.959Z,20.10
2022-08-17T04:14:36.676Z,20.09
2022-08-17T04:17:19.969Z,20.08
2022-08-17T04:19:46.658Z,20.09
2022-08-17T04:22:30.803Z,20.08
2022-08-17T04:25:00.661Z,20.06
2022-08-17T04:27:27.159Z,20.07
2022-08-17T04:29:55.284Z,20.09
2022-08-17T04:33:05.191Z,20.10
2022-08-17T04:35:09.872Z,20.09
2022-08-17T04:37:36.309Z,20.10
2022-08-17T04:40:22.229Z,20.12
2022-08-17T04:43:04.858Z,20.14
2022-08-17T04:45:32.305Z,20.16
2022-08-17T04:47:59.782Z,20.18
2022-08-17T04:50:26.317Z,20.19
2022-08-17T04:52:52.779Z,20.21
2022-08-17T04:55:19.269Z,20.21
2022-08-17T04:57:45.660Z,20.22
2022-08-17T05:00:12.538Z,20.24
2022-08-17T05:02:50.975Z,20.25
2022-08-17T05:05:25.641Z,20.27
2022-08-17T05:07:57.491Z,20.29
2022-08-17T05:10:26.138Z,20.28
2022-08-17T05:13:03.897Z,20.31
2022-08-17T05:15:33.094Z,20.33
2022-08-17T05:18:02.527Z,20.35
2022-08-17T05:20:30.295Z,20.38
2022-08-17T05:23:00.112Z,20.42
2022-08-17T05:25:29.843Z,20.45
2022-08-17T05:27:59.245Z,20.47
2022-08-17T05:30:28.734Z,20.52
2022-08-17T05:33:08.802Z,20.57
2022-08-17T05:35:37.479Z,20.63
2022-08-17T05:38:04.707Z,20.69
2022-08-17T05:40:32.811Z,20.76
2022-08-17T05:43:12.024Z,20.84
2022-08-17T05:46:13.274Z,20.91
2022-08-17T05:48:49.454Z,20.99
2022-08-17T05:51:46.858Z,21.08
2022-08-17T05:54:50.550Z,21.13
2022-08-17T05:57:39.490Z,21.19
2022-08-17T06:00:22.336Z,21.30
2022-08-17T06:03:17.233Z,21.36
2022-08-17T06:05:51.479Z,21.45
2022-08-17T06:08:32.281Z,21.50
2022-08-17T06:11:07.154Z,21.59
2022-08-17T06:14:09.703Z,21.69
2022-08-17T06:16:41.114Z,21.78
2022-08-17T06:19:10.499Z,21.89
2022-08-17T06:21:41.463Z,21.97
2022-08-17T06:24:28.601Z,22.04
2022-08-17T06:27:12.993Z,22.13
2022-08-17T06:29:50.465Z,22.25
2022-08-17T06:32:17.216Z,22.34
2022-08-17T06:34:46.028Z,22.44
2022-08-17T06:37:52.473Z,22.56
2022-08-17T06:40:56.732Z,22.65
2022-08-17T06:43:33.983Z,22.73
2022-08-17T06:46:11.436Z,22.80
2022-08-17T06:48:43.180Z,22.86
2022-08-17T06:51:22.120Z,22.89
2022-08-17T06:53:55.586Z,22.95
2022-08-17T06:56:53.296Z,23.01
2022-08-17T06:59:26.825Z,23.03
2022-08-17T07:02:51.512Z,23.04
2022-08-17T07:05:24.104Z,23.04
2022-08-17T07:08:11.736Z,23.03
2022-08-17T07:10:47.152Z,23.04
2022-08-17T07:13:51.117Z,23.02
2022-08-17T07:16:30.931Z,22.96
2022-08-17T07:18:59.333Z,22.94
2022-08-17T07:21:50.571Z,22.95
2022-08-17T07:24:33.013Z,22.98
2022-08-17T07:27:12.878Z,23.00
2022-08-17T07:29:44.185Z,23.02
2022-08-17T07:32:14.205Z,23.02
2022-08-17T07:35:00.418Z,23.05
2022-08-17T07:37:26.974Z,23.08
2022-08-17T07:39:59.490Z,23.14
2022-08-17T07:42:45.106Z,23.16
2022-08-17T07:45:34.686Z,23.09
2022-08-17T07:48:19.285Z,23.09
2022-08-17T07:50:49.625Z,23.08
2022-08-17T07:53:23.620Z,23.09
2022-08-17T07:55:51.606Z,23.08
2022-08-17T07:58:21.699Z,23.06
2022-08-17T08:01:05.746Z,23.07
2022-08-17T08:03:34.058Z,23.09
2022-08-17T08:06:02.941Z,23.15
2022-08-17T08:08:42.758Z,23.17
2022-08-17T08:11:15.450Z,23.21
2022-08-17T08:13:45.449Z,23.21
2022-08-17T08:16:15.171Z,23.21
2022-08-17T08:18:56.052Z,23.21
2022-08-17T08:21:44.826Z,23.22
2022-08-17T08:24:45.014Z,23.22
2022-08-17T08:27:36.628Z,23.22
2022-08-17T08:30:14.391Z,23.23
2022-08-17T08:33:04.134Z,23.24
2022-08-17T08:35:32.645Z,23.25
2022-08-17T08:38:19.986Z,23.27
2022-08-17T08:41:21.139Z,23.25
2022-08-17T08:44:09.109Z,23.20
2022-08-17T08:46:50.748Z,23.18
2022-08-17T08:50:07.195Z,23.19
2022-08-17T08:52:56.912Z,23.20
2022-08-17T08:55:41.808Z,23.27
2022-08-17T08:58:31.884Z,23.33
2022-08-17T09:01:08.868Z,23.41
2022-08-17T09:04:26.204Z,23.50
2022-08-17T09:07:03.172Z,23.63
2022-08-17T09:10:02.440Z,23.75
2022-08-17T09:13:11.926Z,23.88
2022-08-17T09:15:46.726Z,23.91
2022-08-17T09:19:01.184Z,23.99
2022-08-17T09:21:23.776Z,24.25
2022-08-17T09:24:08.049Z,24.53
2022-08-17T09:26:39.334Z,24.67
2022-08-17T09:29:10.689Z,24.93
2022-08-17T09:31:58.791Z,25.24
2022-08-17T09:34:39.839Z,25.47
2022-08-17T09:37:20.532Z,25.56
2022-08-17T09:40:21.121Z,25.61
2022-08-17T09:42:53.377Z,25.71
2022-08-17T09:45:42.738Z,25.78
2022-08-17T09:48:27.533Z,25.85
2022-08-17T09:51:06.575Z,25.91
2022-08-17T09:53:36.874Z,25.94
2022-08-17T09:56:29.988Z,25.89
2022-08-17T09:59:13.846Z,25.96
2022-08-17T10:01:51.577Z,26.03
2022-08-17T10:04:29.435Z,26.06
2022-08-17T10:07:14.702Z,26.15
2022-08-17T10:10:25.115Z,26.22
2022-08-17T10:13:10.233Z,26.26
2022-08-17T10:15:58.058Z,26.36
2022-08-17T10:18:42.230Z,26.64
2022-08-17T10:21:31.341Z,26.93
2022-08-17T10:24:22.318Z,27.15
2022-08-17T10:26:56.864Z,27.27
2022-08-17T10:29:48.643Z,27.42
2022-08-17T10:32:33.494Z,27.56
2022-08-17T10:35:14.650Z,27.87
2022-08-17T10:38:09.239Z,28.15
2022-08-17T10:40:58.343Z,28.14
2022-08-17T10:43:34.105Z,28.19
2022-08-17T10:46:10.294Z,28.28
2022-08-17T10:49:27.784Z,28.27
2022-08-17T10:51:57.251Z,28.15
2022-08-17T10:54:46.272Z,27.98
2022-08-17T10:57:27.994Z,27.82
2022-08-17T10:59:56.323Z,27.70
2022-08-17T11:02:49.460Z,27.65
2022-08-17T11:05:32.225Z,27.62
2022-08-17T11:08:17.435Z,27.61
2022-08-17T11:10:54.496Z,27.60
2022-08-17T11:13:26.636Z,27.61
2022-08-17T11:16:30.019Z,27.60
2022-08-17T11:19:19.635Z,27.80
2022-08-17T11:22:20.781Z,27.90
2022-08-17T11:24:51.310Z,28.05
2022-08-17T11:27:31.144Z,28.37
2022-08-17T11:30:02.753Z,28.71
2022-08-17T11:32:47.087Z,29.07
2022-08-17T11:35:20.029Z,29.45
2022-08-17T11:38:15.938Z,29.76
2022-08-17T11:41:27.395Z,30.15
2022-08-17T11:44:18.677Z,30.22
2022-08-17T11:47:09.942Z,30.37
2022-08-17T11:50:15.499Z,30.58
2022-08-17T11:52:49.977Z,30.72
2022-08-17T11:55:40.551Z,30.95
2022-08-17T11:58:29.809Z,31.03
2022-08-17T12:00:57.406Z,31.14
2022-08-17T12:03:39.001Z,31.37
2022-08-17T12:06:11.264Z,31.57
2022-08-17T12:08:43.416Z,31.73
2022-08-17T12:11:55.663Z,31.89
2022-08-17T12:14:10.054Z,31.89
2022-08-17T12:16:39.281Z,31.90
2022-08-17T12:19:08.151Z,31.85
2022-08-17T12:21:49.720Z,31.57
2022-08-17T12:24:23.353Z,31.45
2022-08-17T12:27:02.376Z,31.57
2022-08-17T12:29:39.075Z,31.58
2022-08-17T12:32:07.087Z,31.36
2022-08-17T12:34:38.250Z,31.08
2022-08-17T12:37:08.061Z,30.96
2022-08-17T12:39:34.829Z,31.18
2022-08-17T12:42:02.799Z,31.44
2022-08-17T12:44:35.729Z,31.48
2022-08-17T12:47:19.404Z,31.59
2022-08-17T12:49:51.392Z,31.63
2022-08-17T12:52:23.586Z,31.47
2022-08-17T12:55:00.340Z,31.19
2022-08-17T12:57:34.832Z,30.95
2022-08-17T13:00:10.786Z,30.59
2022-08-17T13:02:52.427Z,30.31
2022-08-17T13:05:28.688Z,30.09
2022-08-17T13:07:58.790Z,29.94
2022-08-17T13:10:32.799Z,29.84
2022-08-17T13:13:05.311Z,29.84
2022-08-17T13:15:44.678Z,30.47
2022-08-17T13:18:38.792Z,31.19
2022-08-17T13:21:30.575Z,31.77
2022-08-17T13:24:19.828Z,32.24
2022-08-17T13:27:07.817Z,32.67
2022-08-17T13:29:38.911Z,32.57
2022-08-17T13:32:13.223Z,32.33
2022-08-17T13:34:56.204Z,32.14
2022-08-17T13:37:34.652Z,32.16
2022-08-17T13:40:10.136Z,32.27
2022-08-17T13:42:51.952Z,32.51
2022-08-17T13:45:36.696Z,32.34
2022-08-17T13:48:32.494Z,32.03
2022-08-17T13:50:59.489Z,31.71
2022-08-17T13:53:32.955Z,31.24
2022-08-17T13:56:07.298Z,30.92
2022-08-17T13:58:57.261Z,30.61
2022-08-17T14:01:37.569Z,30.34
2022-08-17T14:04:07.804Z,30.13
2022-08-17T14:06:52.794Z,30.05
2022-08-17T14:09:26.645Z,30.03
2022-08-17T14:11:54.759Z,29.92
2022-08-17T14:14:23.189Z,29.92
2022-08-17T14:16:50.970Z,29.90
2022-08-17T14:19:18.058Z,30.01
2022-08-17T14:21:46.293Z,30.26
2022-08-17T14:24:35.059Z,30.69
2022-08-17T14:27:03.570Z,30.84
2022-08-17T14:29:31.450Z,30.95
2022-08-17T14:32:02.454Z,31.22
2022-08-17T14:34:28.937Z,31.38
2022-08-17T14:36:56.902Z,31.58
2022-08-17T14:39:23.392Z,31.64
2022-08-17T14:41:50.558Z,31.77
2022-08-17T14:44:17.078Z,31.90
2022-08-17T14:46:44.760Z,32.07
2022-08-17T14:49:12.684Z,32.29
2022-08-17T14:51:44.094Z,32.39
2022-08-17T14:54:11.581Z,32.56
2022-08-17T14:57:09.359Z,32.66
2022-08-17T14:59:44.554Z,32.75
2022-08-17T15:02:11.051Z,32.96
2022-08-17T15:04:43.421Z,33.00
2022-08-17T15:07:11.916Z,33.17
2022-08-17T15:09:38.972Z,33.18
2022-08-17T15:12:06.585Z,33.22
2022-08-17T15:14:35.318Z,33.15
2022-08-17T15:17:03.124Z,33.14
2022-08-17T15:19:29.595Z,33.19
2022-08-17T15:21:56.004Z,33.28
2022-08-17T15:24:22.460Z,33.34
2022-08-17T15:26:48.882Z,33.43
2022-08-17T15:29:15.379Z,33.48
2022-08-17T15:31:41.893Z,33.49
2022-08-17T15:34:08.762Z,33.53
2022-08-17T15:36:35.810Z,33.51
2022-08-17T15:39:03.040Z,33.46
2022-08-17T15:41:29.603Z,33.52
2022-08-17T15:43:56.445Z,33.58
2022-08-17T15:46:25.570Z,33.63
2022-08-17T15:48:55.558Z,33.57
2022-08-17T15:51:27.331Z,33.45
2022-08-17T15:53:56.871Z,33.52
2022-08-17T15:56:25.209Z,33.62
2022-08-17T15:58:52.567Z,33.69
2022-08-17T16:01:41.882Z,33.83
2022-08-17T16:04:21.281Z,33.92
2022-08-17T16:06:54.292Z,33.97
2022-08-17T16:09:20.730Z,34.21
2022-08-17T16:11:53.768Z,34.39
2022-08-17T16:14:22.595Z,34.46
2022-08-17T16:16:50.486Z,34.41
2022-08-17T16:19:17.013Z,34.59
2022-08-17T16:21:43.537Z,34.59
2022-08-17T16:24:13.498Z,34.42
2022-08-17T16:26:42.009Z,34.24
2022-08-17T16:29:08.866Z,34.18
2022-08-17T16:31:38.635Z,33.98
2022-08-17T16:34:17.438Z,33.73
2022-08-17T16:36:51.709Z,33.76
2022-08-17T16:39:22.456Z,33.57
2022-08-17T16:41:49.530Z,33.34
2022-08-17T16:44:18.948Z,33.00
2022-08-17T16:46:46.837Z,32.69
2022-08-17T16:49:32.446Z,32.41
2022-08-17T16:52:02.967Z,32.18
2022-08-17T16:54:29.458Z,32.03
2022-08-17T16:56:55.881Z,31.82
2022-08-17T16:59:31.362Z,31.69
2022-08-17T17:02:12.789Z,31.52
2022-08-17T17:05:01.082Z,31.45
2022-08-17T17:07:35.678Z,31.34
2022-08-17T17:10:09.721Z,31.29
2022-08-17T17:13:01.429Z,31.17
2022-08-17T17:15:31.324Z,30.94
2022-08-17T17:18:07.266Z,30.80
2022-08-17T17:20:47.540Z,30.56
2022-08-17T17:23:56.376Z,30.35
2022-08-17T17:26:29.009Z,30.20
2022-08-17T17:29:14.073Z,30.09
2022-08-17T17:31:51.186Z,29.86
2022-08-17T17:34:18.397Z,29.67
2022-08-17T17:36:56.415Z,29.55
2022-08-17T17:39:41.230Z,29.42
2022-08-17T17:42:20.096Z,29.32
2022-08-17T17:45:02.641Z,29.31
2022-08-17T17:47:31.050Z,29.22
2022-08-17T17:50:01.331Z,29.19
2022-08-17T17:52:49.658Z,29.20
2022-08-17T17:55:44.067Z,29.09
2022-08-17T17:58:36.150Z,29.04
2022-08-17T18:01:39.073Z,28.91
2022-08-17T18:04:22.314Z,28.84
2022-08-17T18:07:26.572Z,28.76
2022-08-17T18:10:01.030Z,28.62
2022-08-17T18:12:43.737Z,28.51
2022-08-17T18:15:29.547Z,28.37
2022-08-17T18:18:02.329Z,28.24
2022-08-17T18:20:35.910Z,28.15
2022-08-17T18:23:13.085Z,28.06
2022-08-17T18:25:46.249Z,27.98
2022-08-17T18:28:31.605Z,27.87
2022-08-17T18:31:30.126Z,27.76
2022-08-17T18:34:45.747Z,27.62
2022-08-17T18:37:11.157Z,27.46
2022-08-17T18:39:42.502Z,27.37
2022-08-17T18:42:27.358Z,27.28
2022-08-17T18:44:55.259Z,27.17
2022-08-17T18:47:27.626Z,27.09
2022-08-17T18:49:57.955Z,27.02
2022-08-17T18:52:30.574Z,26.91
2022-08-17T18:55:11.770Z,26.73
2022-08-17T18:57:45.609Z,26.58
2022-08-17T19:00:21.013Z,26.41
2022-08-17T19:02:54.713Z,26.30
2022-08-17T19:05:41.747Z,26.16
2022-08-17T19:08:20.187Z,26.03
2022-08-17T19:10:50.274Z,25.93
2022-08-17T19:13:32.200Z,25.84
2022-08-17T19:16:13.778Z,25.72
2022-08-17T19:19:30.445Z,25.57
2022-08-17T19:22:08.161Z,25.41
2022-08-17T19:24:36.246Z,25.30
2022-08-17T19:27:54.234Z,25.15
2022-08-17T19:30:24.508Z,25.02
2022-08-17T19:32:51.391Z,24.94
2022-08-17T19:35:20.182Z,24.87
2022-08-17T19:37:58.898Z,24.76
2022-08-17T19:40:52.937Z,24.67
2022-08-17T19:43:32.564Z,24.56
2022-08-17T19:46:15.725Z,24.47
2022-08-17T19:48:54.033Z,24.37
2022-08-17T19:51:48.780Z,24.27
2022-08-17T19:54:28.747Z,24.17
2022-08-17T19:57:09.050Z,24.05
2022-08-17T20:00:01.788Z,23.94
2022-08-17T20:02:49.703Z,23.86
2022-08-17T20:05:24.104Z,23.75
2022-08-17T20:08:11.379Z,23.68
2022-08-17T20:11:09.521Z,23.60
2022-08-17T20:13:47.250Z,23.54
2022-08-17T20:16:13.719Z,23.44
2022-08-17T20:18:48.182Z,23.44
2022-08-17T20:21:20.359Z,23.40
2022-08-17T20:24:04.344Z,23.30
2022-08-17T20:26:58.703Z,23.23
2022-08-17T20:29:39.463Z,23.17
2022-08-17T20:32:16.312Z,23.12
2022-08-17T20:34:46.395Z,23.06
2022-08-17T20:37:12.738Z,23.01
2022-08-17T20:39:50.495Z,22.99
2022-08-17T20:42:20.030Z,22.96
2022-08-17T20:44:50.483Z,22.91
2022-08-17T20:47:27.362Z,22.88
2022-08-17T20:50:02.268Z,22.84
2022-08-17T20:52:45.666Z,22.75
2022-08-17T20:55:51.420Z,22.65
2022-08-17T20:58:30.899Z,22.60
2022-08-17T21:00:57.803Z,22.54
2022-08-17T21:03:24.290Z,22.51
2022-08-17T21:06:04.744Z,22.49
2022-08-17T21:08:57.558Z,22.44
2022-08-17T21:11:56.640Z,22.40
2022-08-17T21:14:57.945Z,22.32
2022-08-17T21:18:06.612Z,22.21
2022-08-17T21:21:01.648Z,22.13
2022-08-17T21:23:42.849Z,22.09
2022-08-17T21:26:17.501Z,22.06
2022-08-17T21:29:31.991Z,22.02
2022-08-17T21:31:59.447Z,21.99
2022-08-17T21:34:27.925Z,21.98
2022-08-17T21:36:56.729Z,21.97
2022-08-17T21:39:33.393Z,21.95
2022-08-17T21:42:00.420Z,21.90
2022-08-17T21:44:36.965Z,21.87
2022-08-17T21:47:29.307Z,21.82
2022-08-17T21:50:13.351Z,21.78
2022-08-17T21:52:40.599Z,21.75
2022-08-17T21:55:07.893Z,21.73
2022-08-17T21:57:40.677Z,21.72
2022-08-17T22:00:29.113Z,21.72
2022-08-17T22:02:58.925Z,21.70
2022-08-17T22:05:29.713Z,21.70
2022-08-17T22:08:03.375Z,21.68
2022-08-17T22:10:41.881Z,21.68
2022-08-17T22:13:19.733Z,21.68
2022-08-17T22:15:49.790Z,21.67
2022-08-17T22:18:25.475Z,21.59
2022-08-17T22:20:55.465Z,21.58
2022-08-17T22:24:02.038Z,21.56
2022-08-17T22:27:00.084Z,21.52
2022-08-17T22:29:42.623Z,21.50
2022-08-17T22:32:09.488Z,21.49
2022-08-17T22:34:36.041Z,21.48
2022-08-17T22:37:27.966Z,21.46
2022-08-17T22:39:58.858Z,21.45
2022-08-17T22:42:25.689Z,21.44
2022-08-17T22:44:54.367Z,21.41
2022-08-17T22:47:30.771Z,21.43
2022-08-17T22:50:01.646Z,21.41
2022-08-17T22:52:57.276Z,21.43
2022-08-17T22:55:43.837Z,21.39
2022-08-17T22:58:31.609Z,21.39
2022-08-17T23:01:26.330Z,21.36
2022-08-17T23:03:58.091Z,21.33
2022-08-17T23:06:24.659Z,21.31
2022-08-17T23:08:56.305Z,21.32
2022-08-17T23:11:36.533Z,21.29
2022-08-17T23:14:15.773Z,21.23
2022-08-17T23:16:42.872Z,21.22
2022-08-17T23:19:15.425Z,21.19
2022-08-17T23:21:44.786Z,21.17
2022-08-17T23:24:17.551Z,21.15
2022-08-17T23:26:43.980Z,21.13
2022-08-17T23:29:10.434Z,21.11
2022-08-17T23:31:38.747Z,21.09
2022-08-17T23:34:09.854Z,21.09
2022-08-17T23:36:36.571Z,21.06
2022-08-17T23:39:04.566Z,21.04
2022-08-17T23:41:34.979Z,21.03
2022-08-17T23:44:03.134Z,20.98
2022-08-17T23:46:29.770Z,20.97
2022-08-17T23:48:56.169Z,20.94
2022-08-17T23:51:34.533Z,20.91
2022-08-17T23:54:13.423Z,20.85
2022-08-17T23:56:46.511Z,20.81
2022-08-17T23:59:18.802Z,20.79
